sensor_id;sensor_type;location;lat;lon;timestamp;P1;durP1;ratioP1;P2;durP2;ratioP2
75061;SDS011;63641;46.526;24.612;2022-12-05T00:01:17;16.92;;;13.88;;
75061;SDS011;63641;46.526;24.612;2022-12-05T00:03:47;21.08;;;15.90;;
75061;SDS011;63641;46.526;24.612;2022-12-05T00:06:15;15.00;;;13.25;;
75061;SDS011;63641;46.526;24.612;2022-12-05T00:08:43;11.95;;;9.68;;
75061;SDS011;63641;46.526;24.612;2022-12-05T00:11:11;11.48;;;9.52;;
75061;SDS011;63641;46.526;24.612;2022-12-05T00:13:43;15.57;;;11.38;;
75061;SDS011;63641;46.526;24.612;2022-12-05T00:16:12;11.25;;;10.07;;
75061;SDS011;63641;46.526;24.612;2022-12-05T00:18:41;12.95;;;10.43;;
75061;SDS011;63641;46.526;24.612;2022-12-05T00:21:12;11.57;;;9.82;;
75061;SDS011;63641;46.526;24.612;2022-12-05T00:23:41;9.73;;;8.23;;
75061;SDS011;63641;46.526;24.612;2022-12-05T00:26:08;15.07;;;11.85;;
75061;SDS011;63641;46.526;24.612;2022-12-05T00:28:35;14.13;;;12.23;;
75061;SDS011;63641;46.526;24.612;2022-12-05T00:31:03;14.63;;;11.60;;
75061;SDS011;63641;46.526;24.612;2022-12-05T00:33:30;10.05;;;8.90;;
75061;SDS011;63641;46.526;24.612;2022-12-05T00:36:04;10.75;;;8.77;;
75061;SDS011;63641;46.526;24.612;2022-12-05T00:38:34;8.65;;;7.40;;
75061;SDS011;63641;46.526;24.612;2022-12-05T00:41:02;8.63;;;7.30;;
75061;SDS011;63641;46.526;24.612;2022-12-05T00:43:31;7.50;;;6.80;;
75061;SDS011;63641;46.526;24.612;2022-12-05T00:46:09;7.43;;;6.53;;
75061;SDS011;63641;46.526;24.612;2022-12-05T00:48:39;7.57;;;5.82;;
75061;SDS011;63641;46.526;24.612;2022-12-05T00:51:07;7.10;;;6.40;;
75061;SDS011;63641;46.526;24.612;2022-12-05T00:53:44;7.45;;;5.80;;
75061;SDS011;63641;46.526;24.612;2022-12-05T00:56:13;6.88;;;6.18;;
75061;SDS011;63641;46.526;24.612;2022-12-05T00:58:41;13.35;;;9.68;;
75061;SDS011;63641;46.526;24.612;2022-12-05T01:01:09;11.60;;;10.23;;
75061;SDS011;63641;46.526;24.612;2022-12-05T01:03:41;10.98;;;8.90;;
75061;SDS011;63641;46.526;24.612;2022-12-05T01:06:08;8.77;;;7.60;;
75061;SDS011;63641;46.526;24.612;2022-12-05T01:08:36;10.98;;;7.93;;
75061;SDS011;63641;46.526;24.612;2022-12-05T01:11:03;8.23;;;7.10;;
75061;SDS011;63641;46.526;24.612;2022-12-05T01:13:32;6.60;;;5.82;;
75061;SDS011;63641;46.526;24.612;2022-12-05T01:15:59;7.45;;;6.63;;
75061;SDS011;63641;46.526;24.612;2022-12-05T01:18:27;13.77;;;10.95;;
75061;SDS011;63641;46.526;24.612;2022-12-05T01:20:54;13.93;;;11.85;;
75061;SDS011;63641;46.526;24.612;2022-12-05T01:23:22;16.83;;;13.07;;
75061;SDS011;63641;46.526;24.612;2022-12-05T01:25:50;16.35;;;13.02;;
75061;SDS011;63641;46.526;24.612;2022-12-05T01:28:17;11.77;;;10.20;;
75061;SDS011;63641;46.526;24.612;2022-12-05T01:30:45;10.65;;;9.45;;
75061;SDS011;63641;46.526;24.612;2022-12-05T01:33:12;13.70;;;9.85;;
75061;SDS011;63641;46.526;24.612;2022-12-05T01:35:40;12.65;;;10.32;;
75061;SDS011;63641;46.526;24.612;2022-12-05T01:38:09;10.25;;;8.75;;
75061;SDS011;63641;46.526;24.612;2022-12-05T01:40:37;8.23;;;7.43;;
75061;SDS011;63641;46.526;24.612;2022-12-05T01:43:05;7.85;;;6.47;;
75061;SDS011;63641;46.526;24.612;2022-12-05T01:45:41;7.70;;;6.63;;
75061;SDS011;63641;46.526;24.612;2022-12-05T01:48:17;7.40;;;6.70;;
75061;SDS011;63641;46.526;24.612;2022-12-05T01:50:46;7.10;;;6.20;;
75061;SDS011;63641;46.526;24.612;2022-12-05T01:53:15;7.47;;;6.25;;
75061;SDS011;63641;46.526;24.612;2022-12-05T01:55:43;7.18;;;5.72;;
75061;SDS011;63641;46.526;24.612;2022-12-05T01:58:11;6.97;;;5.68;;
75061;SDS011;63641;46.526;24.612;2022-12-05T02:00:38;7.22;;;6.35;;
75061;SDS011;63641;46.526;24.612;2022-12-05T02:03:06;7.40;;;5.72;;
75061;SDS011;63641;46.526;24.612;2022-12-05T02:05:39;6.85;;;5.82;;
75061;SDS011;63641;46.526;24.612;2022-12-05T02:08:07;5.68;;;5.07;;
75061;SDS011;63641;46.526;24.612;2022-12-05T02:10:43;5.95;;;5.35;;
75061;SDS011;63641;46.526;24.612;2022-12-05T02:19:13;7.50;;;6.30;;
75061;SDS011;63641;46.526;24.612;2022-12-05T02:27:38;6.80;;;5.70;;
75061;SDS011;63641;46.526;24.612;2022-12-05T02:30:37;27.05;;;11.23;;
75061;SDS011;63641;46.526;24.612;2022-12-05T02:33:18;5.68;;;5.18;;
75061;SDS011;63641;46.526;24.612;2022-12-05T02:38:52;6.22;;;5.55;;
75061;SDS011;63641;46.526;24.612;2022-12-05T02:41:54;6.45;;;5.43;;
75061;SDS011;63641;46.526;24.612;2022-12-05T02:44:35;5.53;;;4.82;;
75061;SDS011;63641;46.526;24.612;2022-12-05T02:47:08;4.95;;;4.50;;
75061;SDS011;63641;46.526;24.612;2022-12-05T02:49:38;5.30;;;4.80;;
75061;SDS011;63641;46.526;24.612;2022-12-05T02:52:08;640.53;;;34.20;;
75061;SDS011;63641;46.526;24.612;2022-12-05T02:54:40;5.93;;;5.22;;
75061;SDS011;63641;46.526;24.612;2022-12-05T02:57:10;5.55;;;5.05;;
75061;SDS011;63641;46.526;24.612;2022-12-05T02:59:38;213.82;;;12.02;;
75061;SDS011;63641;46.526;24.612;2022-12-05T03:02:07;861.58;;;38.60;;
75061;SDS011;63641;46.526;24.612;2022-12-05T03:04:34;5.93;;;4.93;;
75061;SDS011;63641;46.526;24.612;2022-12-05T03:07:08;5.78;;;4.60;;
75061;SDS011;63641;46.526;24.612;2022-12-05T03:14:43;5.45;;;4.95;;
75061;SDS011;63641;46.526;24.612;2022-12-05T03:17:17;4.85;;;4.38;;
75061;SDS011;63641;46.526;24.612;2022-12-05T03:19:56;37.83;;;6.75;;
75061;SDS011;63641;46.526;24.612;2022-12-05T03:22:36;5.80;;;4.22;;
75061;SDS011;63641;46.526;24.612;2022-12-05T03:25:06;4.82;;;4.43;;
75061;SDS011;63641;46.526;24.612;2022-12-05T03:30:17;290.52;;;13.68;;
75061;SDS011;63641;46.526;24.612;2022-12-05T03:35:33;4.47;;;4.07;;
75061;SDS011;63641;46.526;24.612;2022-12-05T03:41:09;4.95;;;4.40;;
75061;SDS011;63641;46.526;24.612;2022-12-05T03:43:54;4.72;;;4.25;;
75061;SDS011;63641;46.526;24.612;2022-12-05T03:46:26;5.00;;;4.10;;
75061;SDS011;63641;46.526;24.612;2022-12-05T03:52:00;6.50;;;4.10;;
75061;SDS011;63641;46.526;24.612;2022-12-05T03:54:38;47.50;;;5.38;;
75061;SDS011;63641;46.526;24.612;2022-12-05T03:57:21;5.60;;;5.10;;
75061;SDS011;63641;46.526;24.612;2022-12-05T04:02:31;4.97;;;4.47;;
75061;SDS011;63641;46.526;24.612;2022-12-05T04:07:51;9.27;;;7.95;;
75061;SDS011;63641;46.526;24.612;2022-12-05T04:10:31;6.03;;;5.43;;
75061;SDS011;63641;46.526;24.612;2022-12-05T04:13:19;11.00;;;6.28;;
75061;SDS011;63641;46.526;24.612;2022-12-05T04:16:01;9.43;;;7.57;;
75061;SDS011;63641;46.526;24.612;2022-12-05T04:19:08;8.07;;;7.20;;
75061;SDS011;63641;46.526;24.612;2022-12-05T04:21:42;8.93;;;8.02;;
75061;SDS011;63641;46.526;24.612;2022-12-05T04:24:31;157.25;;;12.10;;
75061;SDS011;63641;46.526;24.612;2022-12-05T04:27:37;6.32;;;5.72;;
75061;SDS011;63641;46.526;24.612;2022-12-05T04:33:34;12.60;;;9.63;;
75061;SDS011;63641;46.526;24.612;2022-12-05T04:36:08;68.28;;;10.45;;
75061;SDS011;63641;46.526;24.612;2022-12-05T04:38:50;25.08;;;7.57;;
75061;SDS011;63641;46.526;24.612;2022-12-05T04:41:28;7.63;;;6.85;;
75061;SDS011;63641;46.526;24.612;2022-12-05T04:44:03;6.18;;;5.47;;
75061;SDS011;63641;46.526;24.612;2022-12-05T04:46:34;6.75;;;5.75;;
75061;SDS011;63641;46.526;24.612;2022-12-05T04:49:04;8.23;;;7.35;;
75061;SDS011;63641;46.526;24.612;2022-12-05T04:51:35;8.10;;;7.30;;
75061;SDS011;63641;46.526;24.612;2022-12-05T04:54:08;7.75;;;6.90;;
75061;SDS011;63641;46.526;24.612;2022-12-05T04:56:40;6.45;;;5.85;;
75061;SDS011;63641;46.526;24.612;2022-12-05T04:59:11;7.00;;;6.22;;
75061;SDS011;63641;46.526;24.612;2022-12-05T05:01:45;6.18;;;5.43;;
75061;SDS011;63641;46.526;24.612;2022-12-05T05:04:17;6.22;;;5.63;;
75061;SDS011;63641;46.526;24.612;2022-12-05T05:06:46;7.72;;;6.47;;
75061;SDS011;63641;46.526;24.612;2022-12-05T05:09:12;10.45;;;9.35;;
75061;SDS011;63641;46.526;24.612;2022-12-05T05:11:39;13.23;;;10.50;;
75061;SDS011;63641;46.526;24.612;2022-12-05T05:14:06;10.95;;;9.15;;
75061;SDS011;63641;46.526;24.612;2022-12-05T05:16:34;13.88;;;11.32;;
75061;SDS011;63641;46.526;24.612;2022-12-05T05:19:04;13.25;;;10.70;;
75061;SDS011;63641;46.526;24.612;2022-12-05T05:21:33;17.08;;;13.95;;
75061;SDS011;63641;46.526;24.612;2022-12-05T05:24:04;16.02;;;12.57;;
75061;SDS011;63641;46.526;24.612;2022-12-05T05:26:32;17.80;;;14.43;;
75061;SDS011;63641;46.526;24.612;2022-12-05T05:29:01;16.20;;;13.13;;
75061;SDS011;63641;46.526;24.612;2022-12-05T05:31:28;14.48;;;11.38;;
75061;SDS011;63641;46.526;24.612;2022-12-05T05:33:56;15.35;;;12.63;;
75061;SDS011;63641;46.526;24.612;2022-12-05T05:36:24;13.27;;;11.88;;
75061;SDS011;63641;46.526;24.612;2022-12-05T05:38:53;13.02;;;11.63;;
75061;SDS011;63641;46.526;24.612;2022-12-05T05:41:23;14.07;;;12.60;;
75061;SDS011;63641;46.526;24.612;2022-12-05T05:43:51;12.40;;;10.52;;
75061;SDS011;63641;46.526;24.612;2022-12-05T05:46:19;12.50;;;11.15;;
75061;SDS011;63641;46.526;24.612;2022-12-05T05:48:48;12.18;;;10.88;;
75061;SDS011;63641;46.526;24.612;2022-12-05T05:51:15;11.05;;;9.35;;
75061;SDS011;63641;46.526;24.612;2022-12-05T05:53:43;11.55;;;8.80;;
75061;SDS011;63641;46.526;24.612;2022-12-05T05:56:11;11.43;;;10.23;;
75061;SDS011;63641;46.526;24.612;2022-12-05T05:58:47;10.55;;;9.45;;
75061;SDS011;63641;46.526;24.612;2022-12-05T06:01:16;10.18;;;9.18;;
75061;SDS011;63641;46.526;24.612;2022-12-05T06:03:45;9.73;;;8.73;;
75061;SDS011;63641;46.526;24.612;2022-12-05T06:06:13;10.57;;;9.48;;
75061;SDS011;63641;46.526;24.612;2022-12-05T06:08:40;10.20;;;8.80;;
75061;SDS011;63641;46.526;24.612;2022-12-05T06:11:09;10.23;;;8.30;;
75061;SDS011;63641;46.526;24.612;2022-12-05T06:13:38;13.60;;;11.35;;
75061;SDS011;63641;46.526;24.612;2022-12-05T06:16:06;12.30;;;10.20;;
75061;SDS011;63641;46.526;24.612;2022-12-05T06:18:35;10.77;;;9.65;;
75061;SDS011;63641;46.526;24.612;2022-12-05T06:21:02;13.82;;;10.45;;
75061;SDS011;63641;46.526;24.612;2022-12-05T06:23:31;13.68;;;10.50;;
75061;SDS011;63641;46.526;24.612;2022-12-05T06:25:57;11.23;;;9.95;;
75061;SDS011;63641;46.526;24.612;2022-12-05T06:28:24;13.73;;;9.95;;
75061;SDS011;63641;46.526;24.612;2022-12-05T06:30:51;10.40;;;8.60;;
75061;SDS011;63641;46.526;24.612;2022-12-05T06:33:19;10.77;;;9.68;;
75061;SDS011;63641;46.526;24.612;2022-12-05T06:35:46;10.82;;;9.75;;
75061;SDS011;63641;46.526;24.612;2022-12-05T06:38:13;10.15;;;8.40;;
75061;SDS011;63641;46.526;24.612;2022-12-05T06:40:41;10.52;;;9.02;;
75061;SDS011;63641;46.526;24.612;2022-12-05T06:43:09;12.20;;;9.60;;
75061;SDS011;63641;46.526;24.612;2022-12-05T06:45:37;8.63;;;7.72;;
75061;SDS011;63641;46.526;24.612;2022-12-05T06:48:04;8.10;;;7.30;;
75061;SDS011;63641;46.526;24.612;2022-12-05T06:50:32;9.73;;;7.90;;
75061;SDS011;63641;46.526;24.612;2022-12-05T06:52:58;14.38;;;12.55;;
75061;SDS011;63641;46.526;24.612;2022-12-05T06:55:25;9.93;;;8.77;;
75061;SDS011;63641;46.526;24.612;2022-12-05T06:57:52;12.20;;;8.82;;
75061;SDS011;63641;46.526;24.612;2022-12-05T07:00:19;11.43;;;10.13;;
75061;SDS011;63641;46.526;24.612;2022-12-05T07:03:05;21.35;;;15.25;;
75061;SDS011;63641;46.526;24.612;2022-12-05T07:05:32;25.17;;;19.60;;
75061;SDS011;63641;46.526;24.612;2022-12-05T07:07:58;46.67;;;33.90;;
75061;SDS011;63641;46.526;24.612;2022-12-05T07:10:25;41.47;;;29.63;;
75061;SDS011;63641;46.526;24.612;2022-12-05T07:12:56;38.88;;;25.80;;
75061;SDS011;63641;46.526;24.612;2022-12-05T07:15:23;39.00;;;27.13;;
75061;SDS011;63641;46.526;24.612;2022-12-05T07:17:49;53.28;;;33.17;;
75061;SDS011;63641;46.526;24.612;2022-12-05T07:20:16;41.70;;;30.50;;
75061;SDS011;63641;46.526;24.612;2022-12-05T07:22:43;42.28;;;31.13;;
75061;SDS011;63641;46.526;24.612;2022-12-05T07:25:11;41.78;;;30.52;;
75061;SDS011;63641;46.526;24.612;2022-12-05T07:27:37;47.22;;;32.03;;
75061;SDS011;63641;46.526;24.612;2022-12-05T07:30:04;41.78;;;31.10;;
75061;SDS011;63641;46.526;24.612;2022-12-05T07:32:32;42.35;;;29.77;;
75061;SDS011;63641;46.526;24.612;2022-12-05T07:34:59;36.50;;;24.85;;
75061;SDS011;63641;46.526;24.612;2022-12-05T07:37:26;37.42;;;26.20;;
75061;SDS011;63641;46.526;24.612;2022-12-05T07:39:53;43.05;;;30.15;;
75061;SDS011;63641;46.526;24.612;2022-12-05T07:42:19;36.72;;;28.05;;
75061;SDS011;63641;46.526;24.612;2022-12-05T07:44:46;37.13;;;28.25;;
75061;SDS011;63641;46.526;24.612;2022-12-05T07:47:13;36.45;;;28.23;;
75061;SDS011;63641;46.526;24.612;2022-12-05T07:49:40;47.92;;;36.00;;
75061;SDS011;63641;46.526;24.612;2022-12-05T07:52:07;58.33;;;39.50;;
75061;SDS011;63641;46.526;24.612;2022-12-05T07:54:35;51.70;;;36.70;;
75061;SDS011;63641;46.526;24.612;2022-12-05T07:57:01;55.90;;;38.38;;
75061;SDS011;63641;46.526;24.612;2022-12-05T07:59:28;49.10;;;35.22;;
75061;SDS011;63641;46.526;24.612;2022-12-05T08:01:55;46.55;;;31.60;;
75061;SDS011;63641;46.526;24.612;2022-12-05T08:04:22;41.22;;;30.27;;
75061;SDS011;63641;46.526;24.612;2022-12-05T08:06:49;44.53;;;32.00;;
75061;SDS011;63641;46.526;24.612;2022-12-05T08:09:16;45.13;;;32.30;;
75061;SDS011;63641;46.526;24.612;2022-12-05T08:11:43;44.75;;;31.58;;
75061;SDS011;63641;46.526;24.612;2022-12-05T08:14:17;44.13;;;31.58;;
75061;SDS011;63641;46.526;24.612;2022-12-05T08:16:44;64.72;;;44.20;;
75061;SDS011;63641;46.526;24.612;2022-12-05T08:19:11;63.65;;;44.72;;
75061;SDS011;63641;46.526;24.612;2022-12-05T08:21:38;79.97;;;54.40;;
75061;SDS011;63641;46.526;24.612;2022-12-05T08:24:05;84.10;;;56.35;;
75061;SDS011;63641;46.526;24.612;2022-12-05T08:26:33;83.35;;;58.72;;
75061;SDS011;63641;46.526;24.612;2022-12-05T08:29:06;98.15;;;62.35;;
75061;SDS011;63641;46.526;24.612;2022-12-05T08:31:39;99.47;;;66.72;;
75061;SDS011;63641;46.526;24.612;2022-12-05T08:34:12;106.53;;;65.63;;
75061;SDS011;63641;46.526;24.612;2022-12-05T08:36:40;100.78;;;62.35;;
75061;SDS011;63641;46.526;24.612;2022-12-05T08:39:07;90.00;;;60.25;;
75061;SDS011;63641;46.526;24.612;2022-12-05T08:41:37;100.22;;;60.47;;
75061;SDS011;63641;46.526;24.612;2022-12-05T08:44:05;92.05;;;61.33;;
75061;SDS011;63641;46.526;24.612;2022-12-05T08:46:34;85.05;;;59.30;;
75061;SDS011;63641;46.526;24.612;2022-12-05T08:49:03;84.03;;;58.08;;
75061;SDS011;63641;46.526;24.612;2022-12-05T08:51:31;86.57;;;56.72;;
75061;SDS011;63641;46.526;24.612;2022-12-05T08:53:57;77.38;;;52.83;;
75061;SDS011;63641;46.526;24.612;2022-12-05T08:56:26;67.57;;;49.38;;
75061;SDS011;63641;46.526;24.612;2022-12-05T08:58:54;71.88;;;50.80;;
75061;SDS011;63641;46.526;24.612;2022-12-05T09:01:29;65.28;;;44.45;;
75061;SDS011;63641;46.526;24.612;2022-12-05T09:03:58;56.00;;;40.80;;
75061;SDS011;63641;46.526;24.612;2022-12-05T09:06:26;52.33;;;39.38;;
75061;SDS011;63641;46.526;24.612;2022-12-05T09:08:55;52.53;;;37.65;;
75061;SDS011;63641;46.526;24.612;2022-12-05T09:11:25;38.17;;;29.63;;
75061;SDS011;63641;46.526;24.612;2022-12-05T09:13:54;33.30;;;26.17;;
75061;SDS011;63641;46.526;24.612;2022-12-05T09:16:24;40.53;;;30.90;;
75061;SDS011;63641;46.526;24.612;2022-12-05T09:19:02;46.45;;;31.02;;
75061;SDS011;63641;46.526;24.612;2022-12-05T09:21:29;39.83;;;27.90;;
75061;SDS011;63641;46.526;24.612;2022-12-05T09:23:58;35.10;;;24.77;;
75061;SDS011;63641;46.526;24.612;2022-12-05T09:26:25;32.47;;;25.08;;
75061;SDS011;63641;46.526;24.612;2022-12-05T09:28:53;33.63;;;26.73;;
75061;SDS011;63641;46.526;24.612;2022-12-05T09:31:21;36.10;;;27.67;;
75061;SDS011;63641;46.526;24.612;2022-12-05T09:33:49;36.00;;;27.90;;
75061;SDS011;63641;46.526;24.612;2022-12-05T09:36:18;27.83;;;21.80;;
75061;SDS011;63641;46.526;24.612;2022-12-05T09:38:50;26.25;;;20.05;;
75061;SDS011;63641;46.526;24.612;2022-12-05T09:41:27;27.73;;;20.70;;
75061;SDS011;63641;46.526;24.612;2022-12-05T09:47:27;23.88;;;18.70;;
75061;SDS011;63641;46.526;24.612;2022-12-05T09:50:25;24.73;;;19.45;;
75061;SDS011;63641;46.526;24.612;2022-12-05T09:53:03;23.00;;;17.52;;
75061;SDS011;63641;46.526;24.612;2022-12-05T09:56:35;22.30;;;18.20;;
75061;SDS011;63641;46.526;24.612;2022-12-05T10:01:50;26.20;;;18.05;;
75061;SDS011;63641;46.526;24.612;2022-12-05T10:07:14;18.38;;;14.50;;
75061;SDS011;63641;46.526;24.612;2022-12-05T10:21:02;20.33;;;14.75;;
75061;SDS011;63641;46.526;24.612;2022-12-05T10:23:59;16.42;;;11.85;;
75061;SDS011;63641;46.526;24.612;2022-12-05T10:26:37;10.55;;;7.30;;
75061;SDS011;63641;46.526;24.612;2022-12-05T10:31:43;9.32;;;7.32;;
75061;SDS011;63641;46.526;24.612;2022-12-05T10:34:22;6.18;;;5.57;;
75061;SDS011;63641;46.526;24.612;2022-12-05T10:39:38;7.38;;;5.47;;
75061;SDS011;63641;46.526;24.612;2022-12-05T10:42:04;9.38;;;5.43;;
75061;SDS011;63641;46.526;24.612;2022-12-05T10:44:34;5.65;;;4.15;;
75061;SDS011;63641;46.526;24.612;2022-12-05T10:47:02;4.50;;;4.07;;
75061;SDS011;63641;46.526;24.612;2022-12-05T10:49:29;3.78;;;3.45;;
75061;SDS011;63641;46.526;24.612;2022-12-05T10:51:57;3.85;;;3.42;;
75061;SDS011;63641;46.526;24.612;2022-12-05T10:54:28;4.18;;;3.78;;
75061;SDS011;63641;46.526;24.612;2022-12-05T10:56:56;3.30;;;3.00;;
75061;SDS011;63641;46.526;24.612;2022-12-05T10:59:24;4.05;;;3.70;;
75061;SDS011;63641;46.526;24.612;2022-12-05T11:02:22;4.15;;;3.40;;
75061;SDS011;63641;46.526;24.612;2022-12-05T11:04:53;3.60;;;3.25;;
75061;SDS011;63641;46.526;24.612;2022-12-05T11:07:31;3.38;;;3.08;;
75061;SDS011;63641;46.526;24.612;2022-12-05T11:10:02;5.40;;;4.00;;
75061;SDS011;63641;46.526;24.612;2022-12-05T11:12:51;4.93;;;3.88;;
75061;SDS011;63641;46.526;24.612;2022-12-05T11:15:21;4.18;;;3.60;;
75061;SDS011;63641;46.526;24.612;2022-12-05T11:17:51;3.70;;;3.30;;
75061;SDS011;63641;46.526;24.612;2022-12-05T11:22:56;4.15;;;3.70;;
75061;SDS011;63641;46.526;24.612;2022-12-05T11:25:32;4.72;;;4.13;;
75061;SDS011;63641;46.526;24.612;2022-12-05T11:33:39;5.20;;;4.70;;
75061;SDS011;63641;46.526;24.612;2022-12-05T11:38:47;5.40;;;4.20;;
75061;SDS011;63641;46.526;24.612;2022-12-05T11:44:05;5.35;;;4.60;;
75061;SDS011;63641;46.526;24.612;2022-12-05T11:47:10;4.97;;;4.47;;
75061;SDS011;63641;46.526;24.612;2022-12-05T12:12:04;6.53;;;5.00;;
75061;SDS011;63641;46.526;24.612;2022-12-05T12:14:55;4.28;;;3.88;;
75061;SDS011;63641;46.526;24.612;2022-12-05T12:17:53;4.13;;;3.72;;
75061;SDS011;63641;46.526;24.612;2022-12-05T12:20:42;5.03;;;3.15;;
75061;SDS011;63641;46.526;24.612;2022-12-05T12:23:26;3.53;;;3.22;;
75061;SDS011;63641;46.526;24.612;2022-12-05T12:31:19;4.22;;;3.83;;
75061;SDS011;63641;46.526;24.612;2022-12-05T12:33:52;3.47;;;3.17;;
75061;SDS011;63641;46.526;24.612;2022-12-05T12:39:13;3.53;;;3.22;;
75061;SDS011;63641;46.526;24.612;2022-12-05T12:47:32;3.58;;;3.15;;
75061;SDS011;63641;46.526;24.612;2022-12-05T12:50:21;3.60;;;3.20;;
75061;SDS011;63641;46.526;24.612;2022-12-05T13:03:36;4.70;;;3.70;;
75061;SDS011;63641;46.526;24.612;2022-12-05T13:06:03;3.63;;;3.10;;
75061;SDS011;63641;46.526;24.612;2022-12-05T13:11:15;5.45;;;3.15;;
75061;SDS011;63641;46.526;24.612;2022-12-05T13:13:53;3.88;;;3.28;;
75061;SDS011;63641;46.526;24.612;2022-12-05T13:16:29;4.70;;;3.10;;
75061;SDS011;63641;46.526;24.612;2022-12-05T13:18:59;3.50;;;3.20;;
75061;SDS011;63641;46.526;24.612;2022-12-05T13:21:28;3.28;;;2.97;;
75061;SDS011;63641;46.526;24.612;2022-12-05T13:23:55;4.00;;;3.17;;
75061;SDS011;63641;46.526;24.612;2022-12-05T13:26:29;3.58;;;3.28;;
75061;SDS011;63641;46.526;24.612;2022-12-05T13:29:00;3.80;;;3.50;;
75061;SDS011;63641;46.526;24.612;2022-12-05T13:34:01;5.57;;;4.72;;
75061;SDS011;63641;46.526;24.612;2022-12-05T13:36:29;6.38;;;5.20;;
75061;SDS011;63641;46.526;24.612;2022-12-05T13:39:24;6.90;;;6.20;;
75061;SDS011;63641;46.526;24.612;2022-12-05T13:42:22;5.65;;;5.03;;
75061;SDS011;63641;46.526;24.612;2022-12-05T13:44:54;6.97;;;5.65;;
75061;SDS011;63641;46.526;24.612;2022-12-05T13:47:26;5.30;;;4.80;;
75061;SDS011;63641;46.526;24.612;2022-12-05T13:52:44;10.45;;;7.28;;
75061;SDS011;63641;46.526;24.612;2022-12-05T13:55:33;10.57;;;8.27;;
75061;SDS011;63641;46.526;24.612;2022-12-05T14:00:44;8.70;;;6.63;;
75061;SDS011;63641;46.526;24.612;2022-12-05T14:05:49;8.13;;;6.32;;
75061;SDS011;63641;46.526;24.612;2022-12-05T14:15:51;12.65;;;9.90;;
75061;SDS011;63641;46.526;24.612;2022-12-05T14:18:21;14.00;;;10.35;;
75061;SDS011;63641;46.526;24.612;2022-12-05T14:26:28;16.55;;;12.50;;
75061;SDS011;63641;46.526;24.612;2022-12-05T14:29:43;14.85;;;13.18;;
75061;SDS011;63641;46.526;24.612;2022-12-05T14:34:30;17.75;;;13.98;;
75061;SDS011;63641;46.526;24.612;2022-12-05T14:37:03;19.08;;;13.95;;
75061;SDS011;63641;46.526;24.612;2022-12-05T14:42:04;16.50;;;13.82;;
75061;SDS011;63641;46.526;24.612;2022-12-05T14:44:56;15.20;;;12.95;;
75061;SDS011;63641;46.526;24.612;2022-12-05T14:47:26;19.00;;;14.10;;
75061;SDS011;63641;46.526;24.612;2022-12-05T14:50:00;17.30;;;14.13;;
75061;SDS011;63641;46.526;24.612;2022-12-05T14:53:28;19.17;;;13.73;;
75061;SDS011;63641;46.526;24.612;2022-12-05T15:01:28;17.90;;;12.63;;
75061;SDS011;63641;46.526;24.612;2022-12-05T15:04:18;15.98;;;13.45;;
75061;SDS011;63641;46.526;24.612;2022-12-05T15:07:00;17.83;;;12.90;;
75061;SDS011;63641;46.526;24.612;2022-12-05T15:12:22;18.00;;;15.50;;
75061;SDS011;63641;46.526;24.612;2022-12-05T15:14:59;22.60;;;16.30;;
75061;SDS011;63641;46.526;24.612;2022-12-05T15:17:39;21.90;;;15.48;;
75061;SDS011;63641;46.526;24.612;2022-12-05T15:20:15;20.50;;;14.13;;
75061;SDS011;63641;46.526;24.612;2022-12-05T15:22:46;16.42;;;13.82;;
75061;SDS011;63641;46.526;24.612;2022-12-05T15:25:26;18.92;;;14.23;;
75061;SDS011;63641;46.526;24.612;2022-12-05T15:30:26;16.98;;;13.82;;
75061;SDS011;63641;46.526;24.612;2022-12-05T15:32:54;17.63;;;14.82;;
75061;SDS011;63641;46.526;24.612;2022-12-05T15:35:25;17.17;;;13.98;;
75061;SDS011;63641;46.526;24.612;2022-12-05T15:37:57;22.23;;;13.77;;
75061;SDS011;63641;46.526;24.612;2022-12-05T15:40:33;17.08;;;13.63;;
75061;SDS011;63641;46.526;24.612;2022-12-05T15:48:50;21.38;;;17.80;;
75061;SDS011;63641;46.526;24.612;2022-12-05T15:51:19;18.55;;;16.30;;
75061;SDS011;63641;46.526;24.612;2022-12-05T15:56:31;18.02;;;15.05;;
75061;SDS011;63641;46.526;24.612;2022-12-05T16:01:47;20.08;;;16.10;;
75061;SDS011;63641;46.526;24.612;2022-12-05T16:04:23;19.92;;;16.75;;
75061;SDS011;63641;46.526;24.612;2022-12-05T16:07:02;22.65;;;17.60;;
75061;SDS011;63641;46.526;24.612;2022-12-05T16:09:36;19.10;;;14.20;;
75061;SDS011;63641;46.526;24.612;2022-12-05T16:14:49;19.27;;;15.35;;
75061;SDS011;63641;46.526;24.612;2022-12-05T16:17:28;18.38;;;14.98;;
75061;SDS011;63641;46.526;24.612;2022-12-05T16:20:12;24.98;;;17.38;;
75061;SDS011;63641;46.526;24.612;2022-12-05T16:22:51;20.42;;;14.93;;
75061;SDS011;63641;46.526;24.612;2022-12-05T16:25:24;17.55;;;14.60;;
75061;SDS011;63641;46.526;24.612;2022-12-05T16:27:57;20.60;;;15.68;;
75061;SDS011;63641;46.526;24.612;2022-12-05T16:30:25;14.98;;;13.38;;
75061;SDS011;63641;46.526;24.612;2022-12-05T16:33:01;15.70;;;11.80;;
75061;SDS011;63641;46.526;24.612;2022-12-05T16:35:38;16.00;;;13.85;;
75061;SDS011;63641;46.526;24.612;2022-12-05T16:38:16;18.75;;;15.38;;
75061;SDS011;63641;46.526;24.612;2022-12-05T16:40:52;14.40;;;12.80;;
75061;SDS011;63641;46.526;24.612;2022-12-05T16:48:39;15.05;;;12.38;;
75061;SDS011;63641;46.526;24.612;2022-12-05T16:51:14;18.42;;;12.65;;
75061;SDS011;63641;46.526;24.612;2022-12-05T16:53:51;17.77;;;13.85;;
75061;SDS011;63641;46.526;24.612;2022-12-05T16:58:51;19.75;;;14.40;;
75061;SDS011;63641;46.526;24.612;2022-12-05T17:01:20;31.13;;;22.73;;
75061;SDS011;63641;46.526;24.612;2022-12-05T17:03:53;24.73;;;17.40;;
75061;SDS011;63641;46.526;24.612;2022-12-05T17:06:21;26.48;;;19.98;;
75061;SDS011;63641;46.526;24.612;2022-12-05T17:08:50;17.13;;;14.27;;
75061;SDS011;63641;46.526;24.612;2022-12-05T17:11:25;22.73;;;18.10;;
75061;SDS011;63641;46.526;24.612;2022-12-05T17:13:53;23.77;;;18.48;;
75061;SDS011;63641;46.526;24.612;2022-12-05T17:16:22;22.17;;;18.63;;
75061;SDS011;63641;46.526;24.612;2022-12-05T17:18:49;26.33;;;19.10;;
75061;SDS011;63641;46.526;24.612;2022-12-05T17:21:16;29.23;;;19.30;;
75061;SDS011;63641;46.526;24.612;2022-12-05T17:23:46;23.05;;;18.27;;
75061;SDS011;63641;46.526;24.612;2022-12-05T17:26:14;26.20;;;20.40;;
75061;SDS011;63641;46.526;24.612;2022-12-05T17:28:43;26.00;;;18.77;;
75061;SDS011;63641;46.526;24.612;2022-12-05T17:31:14;27.40;;;20.55;;
75061;SDS011;63641;46.526;24.612;2022-12-05T17:33:43;26.30;;;19.92;;
75061;SDS011;63641;46.526;24.612;2022-12-05T17:36:11;26.80;;;21.80;;
75061;SDS011;63641;46.526;24.612;2022-12-05T17:38:39;27.27;;;21.23;;
75061;SDS011;63641;46.526;24.612;2022-12-05T17:41:06;27.83;;;21.05;;
75061;SDS011;63641;46.526;24.612;2022-12-05T17:43:33;26.38;;;21.15;;
75061;SDS011;63641;46.526;24.612;2022-12-05T17:46:00;26.27;;;20.85;;
75061;SDS011;63641;46.526;24.612;2022-12-05T17:48:28;35.33;;;26.95;;
75061;SDS011;63641;46.526;24.612;2022-12-05T17:50:55;49.47;;;36.28;;
75061;SDS011;63641;46.526;24.612;2022-12-05T17:53:23;47.75;;;35.08;;
75061;SDS011;63641;46.526;24.612;2022-12-05T17:55:50;71.63;;;45.67;;
75061;SDS011;63641;46.526;24.612;2022-12-05T17:58:17;74.65;;;50.20;;